Hiawatha, Utah
Current Conditions -  °F | °C
As of 11:53 AM on Friday 24 Oct 2014 (Local Time) from KPUC Reporting Station
Clear Clear  
Wind Chill: 62°   Ceiling: Unl
Heat Index: 62°   Visibility: 10mi
Dew Point: 33°   Wind: 5mph
Humidity: 34%   Direction: 130°SE
Pressure: 30.33"   Gusts: NA
Location:  39.5°N, 111.03°W
Report Text: KPUC 241753Z AUTO 13004KT 10SM CLR 17/01 A3033 RMK AO2 SLP242 T01670006 10172 20050 50003 TSNO
Loading
Personal Weather Stations






























Interactive Weather Map
Tropical Storm Tracking
New forecast layout! Learn more

10-Day Weather Forecast

Advertisements
Track Severe Weather on mobile